DLH2YG LOWG-EDNY
Flight info
| Callsign | DLH2YG |
|---|---|
| Flight time | 0h 48m |
| Altitude | 34000 |
| Route | MILGO DCT ERKIR L608 KPT |
| Aircraft | A321/M-DE2E3FGIJ1LORVWXYZ/HB2 |
Departure
| Time | 2026-04-23 20:27 |
|---|---|
| Airport | Graz Airport (LOWG) |
Arrival
| Time | 2026-04-23 21:15 |
|---|---|
| Airport | Bodensee Airport Friedrichshafen (EDNY) |
| Time | Latitude | Longitude | Altitude | Speed | Heading |
|---|---|---|---|---|---|
| 2026-04-23 20:04 | 46.99728 | 15.44301 | 1115 ft | 0 kts | 170° |
| 2026-04-23 20:20 | 46.99743 | 15.44297 | 1108 ft | 4 kts | 170° |
| 2026-04-23 20:20 | 46.99769 | 15.44290 | 1107 ft | 4 kts | 171° |
| 2026-04-23 20:21 | 46.99796 | 15.44286 | 1111 ft | 4 kts | 183° |
| 2026-04-23 20:21 | 46.99817 | 15.44294 | 1108 ft | 4 kts | 244° |
| 2026-04-23 20:21 | 46.99819 | 15.44300 | 1108 ft | 0 kts | 260° |
| 2026-04-23 20:23 | 46.99819 | 15.44298 | 1116 ft | 2 kts | 260° |
| 2026-04-23 20:23 | 46.99810 | 15.44221 | 1116 ft | 9 kts | 262° |
| 2026-04-23 20:23 | 46.99841 | 15.44167 | 1113 ft | 8 kts | 338° |
| 2026-04-23 20:23 | 46.99901 | 15.44146 | 1115 ft | 10 kts | 348° |
| 2026-04-23 20:24 | 46.99975 | 15.44126 | 1114 ft | 13 kts | 349° |
| 2026-04-23 20:24 | 47.00079 | 15.44098 | 1113 ft | 16 kts | 349° |
| 2026-04-23 20:24 | 47.00190 | 15.44068 | 1117 ft | 16 kts | 349° |
| 2026-04-23 20:24 | 47.00297 | 15.44023 | 1120 ft | 15 kts | 329° |
| 2026-04-23 20:25 | 47.00364 | 15.43902 | 1119 ft | 16 kts | 304° |
| 2026-04-23 20:25 | 47.00425 | 15.43765 | 1116 ft | 16 kts | 299° |
| 2026-04-23 20:25 | 47.00427 | 15.43654 | 1125 ft | 10 kts | 243° |
| 2026-04-23 20:25 | 47.00369 | 15.43618 | 1123 ft | 11 kts | 169° |
| 2026-04-23 20:26 | 47.00287 | 15.43638 | 1123 ft | 10 kts | 170° |
| 2026-04-23 20:26 | 47.00271 | 15.43642 | 1118 ft | 6 kts | 169° |
| 2026-04-23 20:26 | 46.99933 | 15.43735 | 1110 ft | 91 kts | 169° |
| 2026-04-23 20:26 | 46.99072 | 15.43972 | 1106 ft | 158 kts | 169° |
| 2026-04-23 20:27 | 46.97948 | 15.44292 | 1727 ft | 161 kts | 169° |
| 2026-04-23 20:27 | 46.96834 | 15.44613 | 2455 ft | 167 kts | 170° |
| 2026-04-23 20:27 | 46.95652 | 15.44956 | 3052 ft | 180 kts | 170° |
| 2026-04-23 20:27 | 46.94373 | 15.45306 | 3542 ft | 197 kts | 176° |
| 2026-04-23 20:28 | 46.92989 | 15.44883 | 3784 ft | 213 kts | 219° |
| 2026-04-23 20:28 | 46.92114 | 15.43203 | 4150 ft | 212 kts | 262° |
| 2026-04-23 20:28 | 46.92244 | 15.41154 | 4628 ft | 202 kts | 301° |
| 2026-04-23 20:28 | 46.93096 | 15.39531 | 5157 ft | 206 kts | 317° |
| 2026-04-23 20:29 | 46.94071 | 15.38012 | 6043 ft | 202 kts | 317° |
| 2026-04-23 20:29 | 46.95026 | 15.36518 | 6930 ft | 202 kts | 317° |
| 2026-04-23 20:29 | 46.95995 | 15.35000 | 7655 ft | 206 kts | 317° |
| 2026-04-23 20:29 | 46.96985 | 15.33446 | 8367 ft | 212 kts | 317° |
| 2026-04-23 20:30 | 46.98094 | 15.32059 | 9020 ft | 217 kts | 332° |
| 2026-04-23 20:30 | 47.01087 | 15.29922 | 9663 ft | 262 kts | 337° |
| 2026-04-23 20:30 | 47.02774 | 15.28742 | 9966 ft | 274 kts | 337° |
| 2026-04-23 20:31 | 47.04495 | 15.27526 | 10015 ft | 275 kts | 337° |
| 2026-04-23 20:31 | 47.06235 | 15.26289 | 10039 ft | 283 kts | 336° |
| 2026-04-23 20:31 | 47.07995 | 15.25038 | 10038 ft | 286 kts | 336° |
| 2026-04-23 20:31 | 47.09762 | 15.23780 | 10037 ft | 288 kts | 336° |
| 2026-04-23 20:32 | 47.11568 | 15.22492 | 10028 ft | 282 kts | 336° |
| 2026-04-23 20:32 | 47.13374 | 15.21202 | 10022 ft | 288 kts | 336° |
| 2026-04-23 20:32 | 47.15214 | 15.19888 | 10024 ft | 298 kts | 336° |
| 2026-04-23 20:32 | 47.17054 | 15.18571 | 10116 ft | 295 kts | 336° |
| 2026-04-23 20:33 | 47.18921 | 15.17238 | 10666 ft | 307 kts | 336° |
| 2026-04-23 20:33 | 47.20888 | 15.15836 | 11095 ft | 319 kts | 336° |
| 2026-04-23 20:33 | 47.22893 | 15.14400 | 11801 ft | 322 kts | 336° |
| 2026-04-23 20:33 | 47.24921 | 15.12943 | 12478 ft | 326 kts | 336° |
| 2026-04-23 20:34 | 47.26942 | 15.11371 | 13151 ft | 332 kts | 329° |
| 2026-04-23 20:34 | 47.28705 | 15.09109 | 13813 ft | 342 kts | 314° |
| 2026-04-23 20:34 | 47.30027 | 15.06146 | 14419 ft | 352 kts | 300° |
| 2026-04-23 20:34 | 47.30766 | 15.02666 | 15044 ft | 363 kts | 284° |
| 2026-04-23 20:35 | 47.31103 | 14.98956 | 15657 ft | 367 kts | 282° |
| 2026-04-23 20:35 | 47.31432 | 14.95201 | 16297 ft | 370 kts | 280° |
| 2026-04-23 20:35 | 47.31763 | 14.91422 | 16887 ft | 374 kts | 281° |
| 2026-04-23 20:35 | 47.32098 | 14.87610 | 17532 ft | 376 kts | 280° |
| 2026-04-23 20:36 | 47.32436 | 14.83771 | 18119 ft | 379 kts | 282° |
| 2026-04-23 20:36 | 47.32773 | 14.79945 | 18655 ft | 383 kts | 279° |
| 2026-04-23 20:36 | 47.33116 | 14.76023 | 19117 ft | 388 kts | 281° |
| 2026-04-23 20:36 | 47.33464 | 14.72061 | 19551 ft | 392 kts | 280° |
| 2026-04-23 20:37 | 47.33813 | 14.68063 | 20018 ft | 395 kts | 281° |
| 2026-04-23 20:37 | 47.34164 | 14.64015 | 20437 ft | 401 kts | 281° |
| 2026-04-23 20:37 | 47.34520 | 14.59908 | 20888 ft | 406 kts | 281° |
| 2026-04-23 20:37 | 47.34877 | 14.55764 | 21365 ft | 410 kts | 281° |
| 2026-04-23 20:38 | 47.35237 | 14.51571 | 21815 ft | 415 kts | 281° |
| 2026-04-23 20:38 | 47.35597 | 14.47331 | 22229 ft | 419 kts | 281° |
| 2026-04-23 20:38 | 47.35960 | 14.43051 | 22684 ft | 423 kts | 282° |
| 2026-04-23 20:38 | 47.36326 | 14.38726 | 23127 ft | 427 kts | 282° |
| 2026-04-23 20:39 | 47.36692 | 14.34357 | 23537 ft | 431 kts | 282° |
| 2026-04-23 20:39 | 47.37062 | 14.29950 | 23973 ft | 435 kts | 282° |
| 2026-04-23 20:39 | 47.37432 | 14.25505 | 24373 ft | 438 kts | 281° |
| 2026-04-23 20:39 | 47.37800 | 14.21038 | 24754 ft | 441 kts | 281° |
| 2026-04-23 20:40 | 47.38167 | 14.16538 | 25142 ft | 443 kts | 281° |
| 2026-04-23 20:40 | 47.38536 | 14.12009 | 25507 ft | 446 kts | 281° |
| 2026-04-23 20:40 | 47.38908 | 14.07453 | 25916 ft | 448 kts | 281° |
| 2026-04-23 20:40 | 47.39282 | 14.02873 | 26310 ft | 451 kts | 281° |
| 2026-04-23 20:41 | 47.39652 | 13.98279 | 26665 ft | 453 kts | 281° |
| 2026-04-23 20:41 | 47.40020 | 13.93646 | 27047 ft | 455 kts | 281° |
| 2026-04-23 20:41 | 47.40390 | 13.88989 | 27428 ft | 458 kts | 281° |
| 2026-04-23 20:41 | 47.40762 | 13.84306 | 27774 ft | 460 kts | 281° |
| 2026-04-23 20:42 | 47.41136 | 13.79599 | 28132 ft | 463 kts | 281° |
| 2026-04-23 20:42 | 47.41509 | 13.74872 | 28499 ft | 465 kts | 281° |
| 2026-04-23 20:42 | 47.41756 | 13.71717 | 28726 ft | 467 kts | 281° |
| 2026-04-23 20:42 | 47.42127 | 13.66937 | 29082 ft | 469 kts | 281° |
| 2026-04-23 20:43 | 47.42497 | 13.62138 | 29427 ft | 472 kts | 281° |
| 2026-04-23 20:43 | 47.42867 | 13.57312 | 29774 ft | 474 kts | 281° |
| 2026-04-23 20:43 | 47.43357 | 13.50883 | 30210 ft | 477 kts | 281° |
| 2026-04-23 20:43 | 47.43731 | 13.46004 | 30508 ft | 479 kts | 281° |
| 2026-04-23 20:44 | 47.43983 | 13.42696 | 30693 ft | 480 kts | 280° |
| 2026-04-23 20:44 | 47.44357 | 13.37779 | 30971 ft | 483 kts | 280° |
| 2026-04-23 20:44 | 47.44729 | 13.32834 | 31249 ft | 485 kts | 280° |
| 2026-04-23 20:44 | 47.45100 | 13.27871 | 31486 ft | 487 kts | 280° |
| 2026-04-23 20:45 | 47.45466 | 13.22881 | 31708 ft | 490 kts | 280° |
| 2026-04-23 20:45 | 47.45827 | 13.17863 | 31947 ft | 492 kts | 280° |
| 2026-04-23 20:45 | 47.46188 | 13.12833 | 32237 ft | 492 kts | 280° |
| 2026-04-23 20:45 | 47.46550 | 13.07804 | 32598 ft | 491 kts | 280° |
| 2026-04-23 20:46 | 47.46912 | 13.02793 | 32944 ft | 491 kts | 280° |
| 2026-04-23 20:46 | 47.47274 | 12.97784 | 33264 ft | 490 kts | 279° |
| 2026-04-23 20:46 | 47.47629 | 12.92833 | 33563 ft | 490 kts | 279° |
| 2026-04-23 20:46 | 47.47988 | 12.87763 | 33889 ft | 489 kts | 279° |
| 2026-04-23 20:47 | 47.48334 | 12.82830 | 34145 ft | 489 kts | 279° |
| 2026-04-23 20:47 | 47.48681 | 12.77846 | 34252 ft | 484 kts | 279° |
| 2026-04-23 20:47 | 47.49348 | 12.68140 | 34266 ft | 471 kts | 279° |
| 2026-04-23 20:48 | 47.50014 | 12.58535 | 34250 ft | 469 kts | 279° |
| 2026-04-23 20:48 | 47.50670 | 12.48928 | 34263 ft | 469 kts | 279° |
| 2026-04-23 20:49 | 47.51301 | 12.39312 | 34263 ft | 469 kts | 279° |
| 2026-04-23 20:49 | 47.51940 | 12.29559 | 34264 ft | 484 kts | 279° |
| 2026-04-23 20:50 | 47.52595 | 12.19595 | 34265 ft | 487 kts | 279° |
| 2026-04-23 20:50 | 47.53228 | 12.09718 | 33675 ft | 486 kts | 278° |
| 2026-04-23 20:51 | 47.53547 | 12.04642 | 32900 ft | 487 kts | 278° |
| 2026-04-23 20:51 | 47.53958 | 11.99713 | 32485 ft | 475 kts | 285° |
| 2026-04-23 20:51 | 47.54616 | 11.94997 | 32262 ft | 463 kts | 285° |
| 2026-04-23 20:51 | 47.55261 | 11.90375 | 32268 ft | 456 kts | 285° |
| 2026-04-23 20:52 | 47.56552 | 11.81165 | 32273 ft | 456 kts | 285° |
| 2026-04-23 20:52 | 47.57833 | 11.72026 | 32271 ft | 456 kts | 285° |
| 2026-04-23 20:53 | 47.59105 | 11.62812 | 32268 ft | 456 kts | 285° |
| 2026-04-23 20:53 | 47.60372 | 11.53592 | 32269 ft | 457 kts | 285° |
| 2026-04-23 20:54 | 47.61626 | 11.44359 | 32277 ft | 457 kts | 285° |
| 2026-04-23 20:54 | 47.62856 | 11.35123 | 32260 ft | 457 kts | 284° |
| 2026-04-23 20:55 | 47.63989 | 11.25844 | 32265 ft | 457 kts | 283° |
| 2026-04-23 20:55 | 47.65083 | 11.16560 | 32268 ft | 458 kts | 283° |
| 2026-04-23 20:56 | 47.66207 | 11.07088 | 32277 ft | 476 kts | 283° |
| 2026-04-23 20:56 | 47.66788 | 11.02222 | 32159 ft | 479 kts | 283° |
| 2026-04-23 20:56 | 47.67365 | 10.97372 | 31584 ft | 476 kts | 283° |
| 2026-04-23 20:57 | 47.67936 | 10.92546 | 31002 ft | 472 kts | 282° |
| 2026-04-23 20:57 | 47.68489 | 10.87838 | 30456 ft | 469 kts | 282° |
| 2026-04-23 20:57 | 47.69045 | 10.83078 | 29821 ft | 465 kts | 282° |
| 2026-04-23 20:57 | 47.69593 | 10.78373 | 29233 ft | 461 kts | 282° |
| 2026-04-23 20:58 | 47.70137 | 10.73695 | 28644 ft | 456 kts | 282° |
| 2026-04-23 20:58 | 47.70674 | 10.69085 | 28071 ft | 452 kts | 283° |
| 2026-04-23 20:58 | 47.71211 | 10.64491 | 27508 ft | 448 kts | 283° |
| 2026-04-23 20:58 | 47.71739 | 10.59956 | 26954 ft | 444 kts | 283° |
| 2026-04-23 20:59 | 47.72259 | 10.55456 | 26394 ft | 440 kts | 282° |
| 2026-04-23 20:59 | 47.72769 | 10.50997 | 25875 ft | 436 kts | 282° |
| 2026-04-23 20:59 | 47.73271 | 10.46578 | 25361 ft | 432 kts | 282° |
| 2026-04-23 20:59 | 47.73763 | 10.42199 | 24855 ft | 428 kts | 283° |
| 2026-04-23 21:00 | 47.74249 | 10.37861 | 24355 ft | 425 kts | 283° |
| 2026-04-23 21:00 | 47.74548 | 10.33499 | 23869 ft | 425 kts | 272° |
| 2026-04-23 21:00 | 47.74490 | 10.29121 | 23291 ft | 422 kts | 271° |
| 2026-04-23 21:00 | 47.74428 | 10.24793 | 22760 ft | 417 kts | 271° |
| 2026-04-23 21:01 | 47.74372 | 10.20515 | 22252 ft | 412 kts | 271° |
| 2026-04-23 21:01 | 47.74318 | 10.16275 | 21734 ft | 408 kts | 271° |
| 2026-04-23 21:01 | 47.74262 | 10.12105 | 21159 ft | 398 kts | 271° |
| 2026-04-23 21:01 | 47.74204 | 10.08082 | 20624 ft | 377 kts | 271° |
| 2026-04-23 21:02 | 47.74134 | 10.04283 | 20272 ft | 365 kts | 271° |
| 2026-04-23 21:02 | 47.74068 | 10.00515 | 20013 ft | 365 kts | 271° |
| 2026-04-23 21:02 | 47.74010 | 9.96807 | 19756 ft | 358 kts | 271° |
| 2026-04-23 21:02 | 47.73954 | 9.93221 | 19388 ft | 337 kts | 272° |
| 2026-04-23 21:03 | 47.73901 | 9.89819 | 19018 ft | 326 kts | 272° |
| 2026-04-23 21:03 | 47.73851 | 9.86420 | 18640 ft | 330 kts | 272° |
| 2026-04-23 21:03 | 47.73797 | 9.83028 | 18224 ft | 327 kts | 272° |
| 2026-04-23 21:03 | 47.73737 | 9.79618 | 17843 ft | 324 kts | 271° |
| 2026-04-23 21:04 | 47.73677 | 9.76321 | 17466 ft | 322 kts | 271° |
| 2026-04-23 21:04 | 47.73616 | 9.73005 | 17089 ft | 320 kts | 271° |
| 2026-04-23 21:04 | 47.73556 | 9.69710 | 16711 ft | 318 kts | 271° |
| 2026-04-23 21:04 | 47.73497 | 9.66436 | 16344 ft | 315 kts | 271° |
| 2026-04-23 21:05 | 47.73436 | 9.63191 | 15972 ft | 314 kts | 271° |
| 2026-04-23 21:05 | 47.73238 | 9.59941 | 15309 ft | 323 kts | 258° |
| 2026-04-23 21:05 | 47.72600 | 9.56708 | 14474 ft | 329 kts | 255° |
| 2026-04-23 21:05 | 47.71927 | 9.53466 | 13803 ft | 327 kts | 254° |
| 2026-04-23 21:06 | 47.71254 | 9.50270 | 13099 ft | 320 kts | 254° |
| 2026-04-23 21:06 | 47.70593 | 9.47138 | 12250 ft | 316 kts | 254° |
| 2026-04-23 21:06 | 47.69940 | 9.44049 | 11413 ft | 311 kts | 254° |
| 2026-04-23 21:06 | 47.69299 | 9.41011 | 10623 ft | 306 kts | 254° |
| 2026-04-23 21:07 | 47.68681 | 9.38079 | 10315 ft | 284 kts | 254° |
| 2026-04-23 21:07 | 47.68114 | 9.35377 | 9996 ft | 267 kts | 254° |
| 2026-04-23 21:07 | 47.67575 | 9.32797 | 9402 ft | 259 kts | 254° |
| 2026-04-23 21:07 | 47.67042 | 9.30257 | 8697 ft | 257 kts | 254° |
| 2026-04-23 21:08 | 47.66515 | 9.27743 | 8009 ft | 253 kts | 254° |
| 2026-04-23 21:08 | 47.65996 | 9.25267 | 7512 ft | 249 kts | 253° |
| 2026-04-23 21:08 | 47.65478 | 9.22804 | 7339 ft | 251 kts | 253° |
| 2026-04-23 21:08 | 47.64698 | 9.20499 | 7203 ft | 252 kts | 229° |
| 2026-04-23 21:09 | 47.63295 | 9.19054 | 7111 ft | 251 kts | 198° |
| 2026-04-23 21:09 | 47.61582 | 9.18780 | 6719 ft | 250 kts | 169° |
| 2026-04-23 21:09 | 47.59954 | 9.19652 | 6033 ft | 247 kts | 147° |
| 2026-04-23 21:09 | 47.58709 | 9.21308 | 5468 ft | 233 kts | 124° |
| 2026-04-23 21:10 | 47.58015 | 9.23336 | 5304 ft | 214 kts | 105° |
| 2026-04-23 21:10 | 47.57803 | 9.25484 | 5114 ft | 211 kts | 88° |
| 2026-04-23 21:10 | 47.58050 | 9.27602 | 4879 ft | 208 kts | 70° |
| 2026-04-23 21:10 | 47.58693 | 9.29502 | 4603 ft | 202 kts | 60° |
| 2026-04-23 21:11 | 47.59370 | 9.31228 | 4328 ft | 188 kts | 60° |
| 2026-04-23 21:11 | 47.60014 | 9.32872 | 4073 ft | 180 kts | 60° |
| 2026-04-23 21:11 | 47.60614 | 9.34405 | 3838 ft | 165 kts | 60° |
| 2026-04-23 21:11 | 47.61167 | 9.35822 | 3610 ft | 153 kts | 60° |
| 2026-04-23 21:12 | 47.61683 | 9.37145 | 3416 ft | 145 kts | 60° |
| 2026-04-23 21:12 | 47.62178 | 9.38414 | 3234 ft | 139 kts | 60° |
| 2026-04-23 21:12 | 47.62654 | 9.39634 | 3036 ft | 135 kts | 60° |
| 2026-04-23 21:12 | 47.63120 | 9.40831 | 2847 ft | 133 kts | 59° |
| 2026-04-23 21:13 | 47.63582 | 9.42017 | 2660 ft | 133 kts | 59° |
| 2026-04-23 21:13 | 47.64046 | 9.43207 | 2475 ft | 133 kts | 58° |
| 2026-04-23 21:13 | 47.64511 | 9.44403 | 2278 ft | 135 kts | 59° |
| 2026-04-23 21:13 | 47.64977 | 9.45599 | 2077 ft | 133 kts | 59° |
| 2026-04-23 21:14 | 47.65437 | 9.46780 | 1899 ft | 133 kts | 59° |
| 2026-04-23 21:14 | 47.65894 | 9.47965 | 1722 ft | 135 kts | 60° |
| 2026-04-23 21:14 | 47.66365 | 9.49176 | 1529 ft | 136 kts | 58° |
| 2026-04-23 21:14 | 47.66839 | 9.50392 | 1361 ft | 133 kts | 59° |
| 2026-04-23 21:15 | 47.67240 | 9.51431 | 1364 ft | 95 kts | 60° |
| 2026-04-23 21:15 | 47.67485 | 9.52054 | 1365 ft | 44 kts | 60° |
| 2026-04-23 21:15 | 47.67537 | 9.52215 | 1368 ft | 0 kts | 88° |
| 2026-04-23 21:15 | 47.67534 | 9.52220 | 1368 ft | 3 kts | 121° |
| 2026-04-23 21:16 | 47.67492 | 9.52293 | 1368 ft | 11 kts | 125° |
| 2026-04-23 21:16 | 47.67442 | 9.52352 | 1369 ft | 7 kts | 158° |
| 2026-04-23 21:16 | 47.67400 | 9.52316 | 1368 ft | 9 kts | 237° |
| 2026-04-23 21:16 | 47.67363 | 9.52219 | 1367 ft | 12 kts | 241° |
| 2026-04-23 21:17 | 47.67352 | 9.52189 | 1367 ft | 2 kts | 239° |
| 2026-04-23 21:17 | 47.67344 | 9.52160 | 1367 ft | 4 kts | 250° |
| 2026-04-23 21:17 | 47.67329 | 9.52153 | 1367 ft | 1 kts | 144° |
| 2026-04-23 21:17 | 47.67333 | 9.52164 | 1366 ft | 3 kts | 62° |
| 2026-04-23 21:18 | 47.67369 | 9.52237 | 1367 ft | 9 kts | 60° |
| 2026-04-23 21:18 | 47.67376 | 9.52286 | 1367 ft | 3 kts | 104° |
| 2026-04-23 21:18 | 47.67368 | 9.52302 | 1368 ft | 1 kts | 139° |
| 2026-04-23 21:18 | 47.67363 | 9.52305 | 1368 ft | 0 kts | 148° |
| 2026-04-23 21:19 | 47.67348 | 9.52316 | 1369 ft | 5 kts | 157° |
| 2026-04-23 21:19 | 47.67337 | 9.52315 | 1368 ft | 0 kts | 193° |